Time;durP1;ratioP1;P1;durP2;ratioP2;P2;SDS_P1;SDS_P2;PMS_P1;PMS_P2;Temp;Humidity;BMP_temperature;BMP_pressure;BME280_temperature;BME280_humidity;BME280_pressure;Samples;Min_cycle;Max_cycle;Signal;HPM_P1;HPM_P2
2023/12/02 00:00:10;;;;;;;18.88;10.13;;;-1.80;99.90;;;;;;5004340;28;20113;-84
2023/12/02 00:02:35;;;;;;;16.40;11.52;;;-1.80;99.90;;;;;;5009212;28;20031;-84
2023/12/02 00:05:01;;;;;;;15.18;9.95;;;-1.80;99.90;;;;;;5011803;28;20699;-83
2023/12/02 00:07:27;;;;;;;16.73;11.30;;;-1.80;99.90;;;;;;5006836;28;20135;-84
2023/12/02 00:09:52;;;;;;;15.82;9.85;;;-1.80;99.90;;;;;;5007542;28;20108;-85
2023/12/02 00:12:18;;;;;;;17.08;9.60;;;-1.80;99.90;;;;;;5026753;28;20053;-82
2023/12/02 00:14:43;;;;;;;14.88;10.20;;;-1.80;99.90;;;;;;5028317;28;20375;-84
2023/12/02 00:17:09;;;;;;;17.35;10.27;;;-1.80;99.90;;;;;;5010730;28;20025;-84
2023/12/02 00:19:34;;;;;;;15.13;9.80;;;-1.80;99.90;;;;;;5008665;28;20026;-83
2023/12/02 00:22:00;;;;;;;18.35;10.85;;;-1.80;99.90;;;;;;5012233;28;20036;-84
2023/12/02 00:24:25;;;;;;;16.70;9.77;;;-1.80;99.90;;;;;;5027747;28;20026;-85
2023/12/02 00:26:51;;;;;;;15.55;10.27;;;-1.80;99.90;;;;;;5019524;28;20026;-83
2023/12/02 00:29:16;;;;;;;12.30;9.07;;;-1.80;99.90;;;;;;5008986;28;20027;-83
2023/12/02 00:31:42;;;;;;;13.90;9.15;;;-1.80;99.90;;;;;;5006318;28;20018;-84
2023/12/02 00:34:08;;;;;;;12.85;8.65;;;-1.80;99.90;;;;;;5022288;28;20109;-84
2023/12/02 00:36:33;;;;;;;16.55;10.45;;;-1.80;99.90;;;;;;5010676;28;20489;-83
2023/12/02 00:38:59;;;;;;;14.25;9.18;;;-1.80;99.90;;;;;;5008817;28;20025;-84
2023/12/02 00:41:25;;;;;;;15.75;10.35;;;-1.80;99.90;;;;;;5011401;28;20032;-85
2023/12/02 00:43:50;;;;;;;16.25;9.98;;;-1.80;99.90;;;;;;5022266;28;20036;-84
2023/12/02 00:46:16;;;;;;;16.10;9.48;;;-1.80;99.90;;;;;;5022986;28;20039;-85
2023/12/02 00:48:41;;;;;;;15.40;8.73;;;-1.80;99.90;;;;;;5030193;28;20543;-85
2023/12/02 00:51:07;;;;;;;14.55;10.05;;;-1.80;99.90;;;;;;5016349;28;20037;-85
2023/12/02 00:53:33;;;;;;;15.35;9.45;;;-1.80;99.90;;;;;;5011187;28;20030;-84
2023/12/02 00:55:58;;;;;;;13.77;9.38;;;-1.80;99.90;;;;;;5012385;28;20079;-85
2023/12/02 00:58:24;;;;;;;12.88;8.98;;;-1.80;99.90;;;;;;5024592;28;20038;-85
2023/12/02 01:00:49;;;;;;;14.63;9.23;;;-1.80;99.90;;;;;;5022443;28;20105;-84
2023/12/02 01:03:15;;;;;;;12.88;8.68;;;-1.80;99.90;;;;;;5010581;28;20025;-84
2023/12/02 01:05:40;;;;;;;13.88;10.10;;;-1.80;99.90;;;;;;5027295;28;20018;-85
2023/12/02 01:08:06;;;;;;;13.05;9.70;;;-1.90;99.90;;;;;;5015361;28;20018;-84
2023/12/02 01:10:31;;;;;;;12.43;8.57;;;-1.80;99.90;;;;;;5012335;28;20033;-85
2023/12/02 01:12:57;;;;;;;13.57;9.13;;;-1.90;99.90;;;;;;5013349;28;20017;-85
2023/12/02 01:15:22;;;;;;;17.23;9.27;;;-1.90;99.90;;;;;;5014529;28;20108;-85
2023/12/02 01:17:48;;;;;;;14.95;8.50;;;-1.90;99.90;;;;;;5015600;28;20030;-85
2023/12/02 01:20:14;;;;;;;11.95;8.98;;;-1.90;99.90;;;;;;5009694;28;20080;-85
2023/12/02 01:22:40;;;;;;;12.10;8.90;;;-1.90;99.90;;;;;;5027981;28;20390;-85
2023/12/02 01:25:06;;;;;;;11.98;8.88;;;-1.90;99.90;;;;;;5021629;28;20021;-84
2023/12/02 01:27:31;;;;;;;12.10;8.43;;;-1.90;99.90;;;;;;5008193;28;20075;-86
2023/12/02 01:29:57;;;;;;;11.52;8.55;;;-1.80;99.90;;;;;;5024784;28;20606;-86
2023/12/02 01:32:22;;;;;;;13.05;8.73;;;-1.80;99.90;;;;;;5016879;28;20666;-85
2023/12/02 01:34:48;;;;;;;12.13;8.25;;;-1.80;99.90;;;;;;5011613;28;20030;-85
2023/12/02 01:37:14;;;;;;;12.93;9.38;;;-1.80;99.90;;;;;;5021607;28;20029;-84
2023/12/02 01:39:39;;;;;;;14.35;10.27;;;-1.80;99.90;;;;;;5008567;28;20036;-84
2023/12/02 01:42:05;;;;;;;9.77;8.30;;;-1.80;99.90;;;;;;5020134;28;20029;-85
2023/12/02 01:44:31;;;;;;;13.07;8.82;;;-1.80;99.90;;;;;;5004938;28;20032;-85
2023/12/02 01:46:57;;;;;;;14.30;9.05;;;-1.80;99.90;;;;;;5008819;28;20032;-84
2023/12/02 01:49:24;;;;;;;14.10;9.90;;;-1.80;99.90;;;;;;5010486;28;20033;-85
2023/12/02 01:51:50;;;;;;;12.30;8.95;;;-1.80;99.90;;;;;;5025181;28;20469;-84
2023/12/02 01:54:17;;;;;;;12.48;8.65;;;-1.80;99.90;;;;;;5011042;28;20032;-85
2023/12/02 01:56:42;;;;;;;13.05;8.73;;;-1.80;99.90;;;;;;5010057;28;20014;-85
2023/12/02 01:59:09;;;;;;;12.18;8.85;;;-1.90;99.90;;;;;;5002559;28;20040;-84
2023/12/02 02:01:34;;;;;;;14.02;8.35;;;-1.80;99.90;;;;;;5009160;28;20435;-85
2023/12/02 02:04:00;;;;;;;11.52;8.05;;;-1.80;99.90;;;;;;5011646;28;20033;-86
2023/12/02 02:06:25;;;;;;;12.32;9.15;;;-1.80;99.90;;;;;;5014270;28;20083;-84
2023/12/02 02:08:51;;;;;;;12.65;8.63;;;-1.80;99.90;;;;;;5015617;28;20017;-85
2023/12/02 02:11:16;;;;;;;13.88;9.38;;;-1.80;99.90;;;;;;5015599;28;20025;-86
2023/12/02 02:13:42;;;;;;;12.93;9.38;;;-1.80;99.90;;;;;;5029940;28;20040;-86
2023/12/02 02:16:08;;;;;;;13.68;9.18;;;-1.80;99.90;;;;;;5011447;28;20033;-84
2023/12/02 02:18:36;;;;;;;15.55;9.07;;;-1.80;99.90;;;;;;5008746;28;20048;-85
2023/12/02 02:21:02;;;;;;;15.55;9.57;;;-1.90;99.90;;;;;;5029138;28;20033;-85
2023/12/02 02:23:28;;;;;;;12.05;8.60;;;-1.90;99.90;;;;;;5011560;28;20452;-84
2023/12/02 02:25:54;;;;;;;12.13;9.05;;;-1.90;99.90;;;;;;5012922;28;20026;-85
2023/12/02 02:28:27;;;;;;;18.20;9.43;;;-1.90;99.90;;;;;;5014266;28;20028;-85
2023/12/02 02:30:53;;;;;;;13.95;10.10;;;-1.90;99.90;;;;;;5016181;28;20022;-84
2023/12/02 02:33:19;;;;;;;16.35;9.40;;;-1.90;99.90;;;;;;5007600;28;20048;-84
2023/12/02 02:35:45;;;;;;;14.13;9.55;;;-1.90;99.90;;;;;;5011007;28;20033;-84
2023/12/02 02:38:11;;;;;;;15.80;10.40;;;-1.90;99.90;;;;;;5008278;28;20120;-84
2023/12/02 02:40:37;;;;;;;13.80;8.18;;;-1.90;99.90;;;;;;5004691;28;20709;-84
2023/12/02 02:43:03;;;;;;;16.83;9.07;;;-1.90;99.90;;;;;;5009563;28;20104;-84
2023/12/02 02:45:28;;;;;;;13.50;9.30;;;-1.90;99.90;;;;;;5010839;28;20075;-84
2023/12/02 02:47:54;;;;;;;13.82;9.43;;;-1.90;99.90;;;;;;5024762;28;20053;-84
2023/12/02 02:50:19;;;;;;;12.00;8.68;;;-1.90;99.90;;;;;;5009753;28;20028;-84
2023/12/02 02:52:46;;;;;;;12.55;9.02;;;-1.90;99.90;;;;;;5009722;28;20436;-84
2023/12/02 02:55:11;;;;;;;11.60;7.93;;;-1.90;99.90;;;;;;5012301;28;20497;-84
2023/12/02 02:57:37;;;;;;;14.25;8.32;;;-1.90;99.90;;;;;;5004405;28;20033;-85
2023/12/02 03:00:08;;;;;;;18.00;8.73;;;-1.90;99.90;;;;;;5005032;28;20029;-84
2023/12/02 03:02:37;;;;;;;13.25;9.20;;;-1.90;99.90;;;;;;5008300;28;20037;-84
2023/12/02 03:05:04;;;;;;;13.27;9.23;;;-1.90;99.90;;;;;;5011434;28;20029;-84
2023/12/02 03:07:30;;;;;;;17.65;10.35;;;-1.90;99.90;;;;;;5005867;28;20041;-84
2023/12/02 03:09:56;;;;;;;13.00;8.93;;;-1.90;99.90;;;;;;5021848;28;20029;-84
2023/12/02 03:12:23;;;;;;;12.20;8.18;;;-1.90;99.90;;;;;;5010682;28;20026;-84
2023/12/02 03:14:48;;;;;;;13.35;8.93;;;-1.90;99.90;;;;;;5005628;28;20030;-84
2023/12/02 03:17:14;;;;;;;15.80;8.35;;;-1.90;99.90;;;;;;5011387;28;20030;-84
2023/12/02 03:19:39;;;;;;;12.70;8.43;;;-1.90;99.90;;;;;;5009791;28;20048;-85
2023/12/02 03:22:05;;;;;;;14.43;9.02;;;-1.90;99.90;;;;;;5009473;28;20041;-84
2023/12/02 03:24:31;;;;;;;13.70;9.18;;;-1.90;99.90;;;;;;5012895;28;20401;-85
2023/12/02 03:26:56;;;;;;;16.80;9.45;;;-1.90;99.90;;;;;;5008022;28;20492;-85
2023/12/02 03:29:22;;;;;;;14.30;8.80;;;-1.90;99.90;;;;;;5025847;28;20584;-84
2023/12/02 03:31:48;;;;;;;14.38;9.50;;;-1.90;99.90;;;;;;5018582;28;20295;-86
2023/12/02 03:34:13;;;;;;;13.32;8.93;;;-1.90;99.90;;;;;;5002990;28;20123;-84
2023/12/02 03:36:39;;;;;;;12.40;7.93;;;-1.90;99.90;;;;;;5012786;28;20109;-86
2023/12/02 03:39:05;;;;;;;14.45;8.50;;;-1.90;99.90;;;;;;5011311;28;20096;-84
2023/12/02 03:41:31;;;;;;;12.43;8.65;;;-1.90;99.90;;;;;;5008294;28;20068;-85
2023/12/02 03:43:56;;;;;;;11.07;7.93;;;-1.90;99.90;;;;;;5011349;28;20369;-85
2023/12/02 03:46:22;;;;;;;15.25;8.77;;;-1.90;99.90;;;;;;5008903;28;20026;-84
2023/12/02 03:48:47;;;;;;;13.80;8.82;;;-1.90;99.90;;;;;;5011032;28;20128;-84
2023/12/02 03:51:13;;;;;;;13.02;9.07;;;-1.90;99.90;;;;;;5008032;28;20022;-85
2023/12/02 03:53:39;;;;;;;13.35;8.95;;;-1.90;99.90;;;;;;5008879;28;20128;-84
2023/12/02 03:56:06;;;;;;;11.82;8.63;;;-1.90;99.90;;;;;;5008617;28;20120;-85
2023/12/02 03:58:31;;;;;;;12.55;8.73;;;-1.90;99.90;;;;;;5007667;28;20038;-85
2023/12/02 04:00:57;;;;;;;12.93;8.52;;;-1.90;99.90;;;;;;5025429;28;20446;-83
2023/12/02 04:03:23;;;;;;;16.23;8.38;;;-1.90;99.90;;;;;;5009211;28;20022;-84
2023/12/02 04:05:52;;;;;;;13.90;9.80;;;-1.90;99.90;;;;;;5007216;28;20036;-84
2023/12/02 04:08:18;;;;;;;15.98;9.60;;;-1.90;99.90;;;;;;5010170;28;20070;-84
2023/12/02 04:10:44;;;;;;;14.73;9.75;;;-1.90;99.90;;;;;;5002235;28;20052;-84
2023/12/02 04:13:10;;;;;;;13.77;9.13;;;-1.90;99.90;;;;;;5010903;28;20112;-85
2023/12/02 04:15:36;;;;;;;12.90;9.23;;;-1.90;99.90;;;;;;5008844;28;20083;-84
2023/12/02 04:18:02;;;;;;;15.38;9.82;;;-1.90;99.90;;;;;;5004795;28;20025;-84
2023/12/02 04:20:28;;;;;;;11.68;7.97;;;-1.90;99.90;;;;;;5009133;28;20029;-84
2023/12/02 04:22:53;;;;;;;14.65;8.45;;;-1.90;99.90;;;;;;5012298;28;20083;-84
2023/12/02 04:25:19;;;;;;;11.55;8.65;;;-1.90;99.90;;;;;;5008597;28;20457;-85
2023/12/02 04:27:44;;;;;;;12.07;7.80;;;-1.90;99.90;;;;;;5009621;28;20026;-84
2023/12/02 04:30:10;;;;;;;14.00;8.32;;;-1.90;99.90;;;;;;5006392;28;20473;-84
2023/12/02 04:32:36;;;;;;;11.65;7.40;;;-1.90;99.90;;;;;;5009495;28;20026;-84
2023/12/02 04:35:01;;;;;;;13.75;9.05;;;-1.90;99.90;;;;;;5006727;28;20486;-84
2023/12/02 04:37:27;;;;;;;13.25;8.45;;;-1.90;99.90;;;;;;5007516;28;20103;-84
2023/12/02 04:39:54;;;;;;;14.65;8.45;;;-1.90;99.90;;;;;;5003230;28;20390;-84
2023/12/02 04:42:20;;;;;;;11.20;8.23;;;-1.80;99.90;;;;;;5010893;28;20033;-84
2023/12/02 04:44:45;;;;;;;14.13;8.65;;;-1.80;99.90;;;;;;5004478;28;20215;-85
2023/12/02 04:47:11;;;;;;;12.05;7.93;;;-1.90;99.90;;;;;;5011364;28;20115;-84
2023/12/02 04:49:37;;;;;;;11.35;7.90;;;-1.90;99.90;;;;;;5009138;28;20041;-84
2023/12/02 04:52:03;;;;;;;13.05;8.25;;;-1.90;99.90;;;;;;5009040;28;20037;-85
2023/12/02 04:54:29;;;;;;;14.38;9.27;;;-1.80;99.90;;;;;;5024885;28;20636;-84
2023/12/02 04:56:54;;;;;;;13.43;9.48;;;-1.90;99.90;;;;;;5002162;28;20038;-84
2023/12/02 04:59:20;;;;;;;11.82;8.90;;;-1.90;99.90;;;;;;5004433;28;20040;-85
2023/12/02 05:01:46;;;;;;;16.10;9.57;;;-1.90;99.90;;;;;;5004440;28;20033;-83
2023/12/02 05:04:11;;;;;;;12.13;7.97;;;-1.90;99.90;;;;;;5006772;28;20080;-84
2023/12/02 05:06:38;;;;;;;11.60;8.30;;;-1.90;99.90;;;;;;5008729;28;20025;-84
2023/12/02 05:09:06;;;;;;;12.50;8.52;;;-1.90;99.90;;;;;;5007789;28;20035;-84
2023/12/02 05:11:31;;;;;;;12.25;8.90;;;-1.80;99.90;;;;;;5017780;28;20129;-84
2023/12/02 05:13:57;;;;;;;11.40;9.15;;;-1.80;99.90;;;;;;5010606;28;20105;-84
2023/12/02 05:16:23;;;;;;;11.27;8.25;;;-1.80;99.90;;;;;;5009381;28;20036;-84
2023/12/02 05:18:48;;;;;;;12.90;8.88;;;-1.80;99.90;;;;;;5011792;28;20025;-84
2023/12/02 05:21:15;;;;;;;12.70;8.63;;;-1.80;99.90;;;;;;5027543;28;20037;-85
2023/12/02 05:23:41;;;;;;;14.45;9.80;;;-1.80;99.90;;;;;;5020066;28;20021;-85
2023/12/02 05:26:08;;;;;;;14.95;9.77;;;-1.80;99.90;;;;;;5028588;28;20495;-84
2023/12/02 05:28:33;;;;;;;14.70;9.82;;;-1.80;99.90;;;;;;5007948;28;20053;-84
2023/12/02 05:30:59;;;;;;;14.07;9.18;;;-1.80;99.90;;;;;;5022691;28;20024;-84
2023/12/02 05:33:24;;;;;;;11.20;7.88;;;-1.80;99.90;;;;;;5006868;28;20497;-84
2023/12/02 05:35:50;;;;;;;12.52;8.38;;;-1.80;99.90;;;;;;5015039;28;20022;-84
2023/12/02 05:38:16;;;;;;;15.45;8.93;;;-1.80;99.90;;;;;;5009777;28;20026;-84
2023/12/02 05:40:42;;;;;;;15.43;9.70;;;-1.80;99.90;;;;;;5005504;28;20034;-84
2023/12/02 05:43:08;;;;;;;15.13;9.70;;;-1.80;99.90;;;;;;5031314;28;20025;-84
2023/12/02 05:45:33;;;;;;;13.30;9.07;;;-1.80;99.90;;;;;;5011374;28;20052;-84
2023/12/02 05:47:59;;;;;;;15.73;9.90;;;-1.80;99.90;;;;;;5012345;28;20480;-84
2023/12/02 05:50:26;;;;;;;15.93;8.77;;;-1.80;99.90;;;;;;5012197;28;20496;-84
2023/12/02 05:52:51;;;;;;;16.98;10.60;;;-1.80;99.90;;;;;;5010322;28;20036;-86
2023/12/02 05:55:17;;;;;;;14.18;9.25;;;-1.80;99.90;;;;;;5029504;28;20025;-84
2023/12/02 05:57:46;;;;;;;15.75;9.70;;;-1.80;99.90;;;;;;5012592;28;20053;-84
2023/12/02 06:00:13;;;;;;;13.15;8.98;;;-1.80;99.90;;;;;;5022054;28;20021;-85
2023/12/02 06:02:38;;;;;;;14.15;8.95;;;-1.80;99.90;;;;;;5008819;28;20071;-84
2023/12/02 06:05:05;;;;;;;15.23;9.77;;;-1.70;99.90;;;;;;5007883;28;20040;-84
2023/12/02 06:07:32;;;;;;;15.75;9.65;;;-1.80;99.90;;;;;;5029210;28;20477;-84
2023/12/02 06:09:57;;;;;;;14.93;9.82;;;-1.80;99.90;;;;;;5005280;28;20385;-84
2023/12/02 06:12:23;;;;;;;13.38;9.05;;;-1.80;99.90;;;;;;5012618;28;20048;-84
2023/12/02 06:14:49;;;;;;;15.70;8.85;;;-1.80;99.90;;;;;;5012972;28;20033;-84
2023/12/02 06:17:15;;;;;;;12.38;8.63;;;-1.80;99.90;;;;;;5013021;28;20674;-84
2023/12/02 06:19:40;;;;;;;13.73;9.10;;;-1.80;99.90;;;;;;5029048;28;20096;-84
2023/12/02 06:22:06;;;;;;;13.05;8.98;;;-1.80;99.90;;;;;;5009850;28;20021;-84
2023/12/02 06:24:31;;;;;;;13.60;8.90;;;-1.80;99.90;;;;;;5029409;28;20054;-84
2023/12/02 06:26:57;;;;;;;12.82;8.55;;;-1.80;99.90;;;;;;5026999;28;20025;-84
2023/12/02 06:29:22;;;;;;;15.30;9.77;;;-1.80;99.90;;;;;;5011008;28;20037;-84
2023/12/02 06:31:49;;;;;;;16.17;9.25;;;-1.80;99.90;;;;;;5008532;28;20420;-84
2023/12/02 06:34:16;;;;;;;18.42;9.43;;;-1.80;99.90;;;;;;5013279;28;20022;-85
2023/12/02 06:36:41;;;;;;;12.38;8.70;;;-1.80;99.90;;;;;;5005970;28;20028;-84
2023/12/02 06:39:07;;;;;;;13.55;8.82;;;-1.70;99.90;;;;;;5008313;28;20037;-84
2023/12/02 06:41:33;;;;;;;13.10;9.52;;;-1.70;99.90;;;;;;5007479;28;20085;-84
2023/12/02 06:43:58;;;;;;;14.63;9.40;;;-1.70;99.90;;;;;;5006803;28;20076;-84
2023/12/02 06:46:24;;;;;;;13.80;9.45;;;-1.80;99.90;;;;;;5013304;28;20017;-84
2023/12/02 06:48:50;;;;;;;14.70;9.30;;;-1.70;99.90;;;;;;5010823;28;20083;-83
2023/12/02 06:51:16;;;;;;;13.80;9.18;;;-1.80;99.90;;;;;;5009097;28;20029;-84
2023/12/02 06:53:41;;;;;;;13.10;8.90;;;-1.80;99.90;;;;;;5004886;28;20041;-84
2023/12/02 06:56:23;;;;;;;14.32;9.90;;;-1.70;99.90;;;;;;5007105;28;20055;-84
2023/12/02 06:58:50;;;;;;;15.07;10.27;;;-1.80;99.90;;;;;;5006969;28;20044;-84
2023/12/02 07:01:30;;;;;;;14.77;9.68;;;-1.80;99.90;;;;;;5006664;28;20082;-85
2023/12/02 07:03:57;;;;;;;16.60;10.52;;;-1.70;99.90;;;;;;5008100;28;20116;-85
2023/12/02 07:06:24;;;;;;;13.52;9.55;;;-1.70;99.90;;;;;;5006293;28;20041;-84
2023/12/02 07:11:57;;;;;;;15.80;10.07;;;-1.70;99.90;;;;;;5025219;28;20100;-89
2023/12/02 07:14:22;;;;;;;13.65;9.45;;;-1.70;99.90;;;;;;5009052;28;20014;-85
2023/12/02 07:16:48;;;;;;;14.48;9.70;;;-1.70;99.90;;;;;;5008824;28;20021;-84
2023/12/02 07:19:13;;;;;;;16.35;9.77;;;-1.70;99.90;;;;;;5007985;28;20076;-84
2023/12/02 07:21:39;;;;;;;16.05;9.45;;;-1.70;99.90;;;;;;5009868;28;20025;-84
2023/12/02 07:24:05;;;;;;;13.82;9.95;;;-1.70;99.90;;;;;;5011760;28;20075;-84
2023/12/02 07:26:31;;;;;;;14.88;9.85;;;-1.70;99.90;;;;;;5004595;28;20017;-84
2023/12/02 07:28:56;;;;;;;18.52;10.35;;;-1.70;99.90;;;;;;5011229;28;20009;-84
2023/12/02 07:31:22;;;;;;;15.40;10.43;;;-1.70;99.90;;;;;;5003585;28;20013;-85
2023/12/02 07:33:48;;;;;;;15.10;9.80;;;-1.70;99.90;;;;;;5010640;28;20580;-84
2023/12/02 07:36:13;;;;;;;15.38;11.02;;;-1.70;99.90;;;;;;5011370;28;20448;-85
2023/12/02 07:38:40;;;;;;;13.38;9.70;;;-1.60;99.90;;;;;;5006220;28;20037;-84
2023/12/02 07:41:09;;;;;;;15.18;10.07;;;-1.60;99.90;;;;;;5030401;28;20022;-84
2023/12/02 07:43:35;;;;;;;16.17;10.35;;;-1.60;99.90;;;;;;5009059;28;20021;-84
2023/12/02 07:46:01;;;;;;;15.80;9.07;;;-1.60;99.90;;;;;;5011883;28;20501;-84
2023/12/02 07:48:26;;;;;;;16.33;9.40;;;-1.60;99.90;;;;;;5011172;28;20509;-84
2023/12/02 07:50:52;;;;;;;13.35;9.40;;;-1.50;99.90;;;;;;5019383;28;20101;-84
2023/12/02 07:53:17;;;;;;;14.27;9.70;;;-1.50;99.90;;;;;;5014148;28;20104;-84
2023/12/02 07:55:43;;;;;;;12.85;9.10;;;-1.50;99.90;;;;;;5021977;28;20029;-85
2023/12/02 07:58:08;;;;;;;13.63;9.55;;;-1.50;99.90;;;;;;5013621;28;20055;-84
2023/12/02 08:00:34;;;;;;;14.38;9.88;;;-1.50;99.90;;;;;;5026487;28;20034;-85
2023/12/02 08:02:59;;;;;;;14.95;9.50;;;-1.40;99.90;;;;;;5008536;28;20017;-85
2023/12/02 08:05:25;;;;;;;14.85;9.20;;;-1.50;99.90;;;;;;5011160;28;20425;-85
2023/12/02 08:07:51;;;;;;;15.32;9.88;;;-1.50;99.90;;;;;;5025886;28;20735;-84
2023/12/02 08:10:17;;;;;;;14.77;9.85;;;-1.50;99.90;;;;;;5026904;28;20101;-84
2023/12/02 08:12:42;;;;;;;16.10;9.48;;;-1.50;99.90;;;;;;5010242;28;20091;-85
2023/12/02 08:15:08;;;;;;;16.55;9.45;;;-1.50;99.90;;;;;;5030820;28;20017;-85
2023/12/02 08:17:35;;;;;;;15.85;10.02;;;-1.50;99.90;;;;;;5009588;28;20030;-84
2023/12/02 08:20:01;;;;;;;15.82;10.30;;;-1.50;99.90;;;;;;5008497;28;20036;-84
2023/12/02 08:22:27;;;;;;;15.13;9.95;;;-1.50;99.90;;;;;;5009611;28;20026;-84
2023/12/02 08:24:53;;;;;;;14.38;9.82;;;-1.40;99.90;;;;;;5014749;28;20048;-84
2023/12/02 08:27:19;;;;;;;15.50;10.23;;;-1.40;99.90;;;;;;5010517;28;20081;-84
2023/12/02 08:29:44;;;;;;;14.10;9.50;;;-1.40;99.90;;;;;;5017056;28;20030;-84
2023/12/02 08:32:10;;;;;;;15.13;10.23;;;-1.40;99.90;;;;;;5014995;28;20407;-84
2023/12/02 08:34:36;;;;;;;15.77;9.60;;;-1.40;99.90;;;;;;5013412;28;20049;-84
2023/12/02 08:37:02;;;;;;;16.35;10.50;;;-1.40;99.90;;;;;;5011898;28;20120;-84
2023/12/02 08:39:28;;;;;;;15.15;10.13;;;-1.40;99.90;;;;;;5014211;28;20017;-84
2023/12/02 08:41:53;;;;;;;13.73;9.45;;;-1.40;99.90;;;;;;5015829;28;20165;-84
2023/12/02 08:44:19;;;;;;;16.30;9.55;;;-1.40;99.90;;;;;;5014870;28;20636;-85
2023/12/02 08:46:44;;;;;;;15.30;10.18;;;-1.40;99.90;;;;;;5011518;28;20110;-84
2023/12/02 08:49:10;;;;;;;16.95;9.48;;;-1.40;99.90;;;;;;5008567;28;20057;-85
2023/12/02 08:51:36;;;;;;;13.40;9.23;;;-1.30;99.90;;;;;;5008334;28;20025;-84
2023/12/02 08:54:03;;;;;;;14.55;9.70;;;-1.40;99.90;;;;;;5012576;28;20021;-85
2023/12/02 08:56:28;;;;;;;15.88;10.60;;;-1.30;99.90;;;;;;5008304;28;20029;-85
2023/12/02 08:58:54;;;;;;;13.75;9.30;;;-1.40;99.90;;;;;;5008417;28;20029;-85
2023/12/02 09:01:21;;;;;;;15.63;10.57;;;-1.30;99.90;;;;;;5016084;28;20030;-84
2023/12/02 09:03:46;;;;;;;18.30;10.77;;;-1.30;99.90;;;;;;5025357;28;20018;-85
2023/12/02 09:06:12;;;;;;;13.95;9.75;;;-1.30;99.90;;;;;;5030723;28;20049;-86
2023/12/02 09:08:38;;;;;;;14.15;9.98;;;-1.30;99.90;;;;;;5011070;28;21200;-85
2023/12/02 09:11:04;;;;;;;20.27;11.57;;;-1.30;99.90;;;;;;5020858;28;20045;-86
2023/12/02 09:13:39;;;;;;;18.80;10.98;;;-1.30;99.90;;;;;;5008348;28;20033;-85
2023/12/02 09:16:09;;;;;;;19.45;10.50;;;-1.30;99.90;;;;;;5013890;28;20036;-85
2023/12/02 09:18:36;;;;;;;13.85;9.95;;;-1.30;99.90;;;;;;5007847;28;20338;-83
2023/12/02 09:21:02;;;;;;;19.88;11.10;;;-1.30;99.90;;;;;;5013762;28;20045;-84
2023/12/02 09:23:29;;;;;;;15.07;10.48;;;-1.30;99.90;;;;;;5009782;28;20324;-85
2023/12/02 09:25:59;;;;;;;15.90;10.00;;;-1.30;99.90;;;;;;5023846;28;20039;-84
2023/12/02 09:28:29;;;;;;;17.25;11.15;;;-1.30;99.90;;;;;;5013508;28;20033;-84
2023/12/02 09:30:58;;;;;;;18.92;11.38;;;-1.30;99.90;;;;;;5008949;28;20184;-84
2023/12/02 09:33:24;;;;;;;19.83;11.98;;;-1.20;99.90;;;;;;5012199;28;20442;-84
2023/12/02 09:35:57;;;;;;;17.27;11.23;;;-1.20;99.90;;;;;;5008342;28;20028;-84
2023/12/02 09:38:24;;;;;;;22.48;12.52;;;-1.20;99.90;;;;;;5019110;28;20137;-83
2023/12/02 09:41:17;;;;;;;17.23;11.25;;;-1.20;99.90;;;;;;5014616;28;20108;-84
2023/12/02 09:44:10;;;;;;;15.80;10.75;;;-1.20;99.90;;;;;;5012604;28;20091;-84
2023/12/02 09:46:53;;;;;;;14.93;10.32;;;-1.10;99.90;;;;;;5011356;28;20039;-85
2023/12/02 09:49:21;;;;;;;19.48;11.23;;;-1.10;99.90;;;;;;5030165;28;20025;-86
2023/12/02 09:52:02;;;;;;;20.92;10.88;;;-1.10;99.90;;;;;;5015804;28;20030;-85
2023/12/02 09:54:56;;;;;;;16.75;10.57;;;-1.10;99.90;;;;;;5008172;28;20029;-84
2023/12/02 09:57:44;;;;;;;15.70;11.45;;;-1.10;99.90;;;;;;5012757;28;20036;-85
2023/12/02 10:00:26;;;;;;;15.95;10.18;;;-1.00;99.90;;;;;;5022092;28;20018;-85
2023/12/02 10:03:26;;;;;;;14.77;10.35;;;-1.00;99.90;;;;;;5012136;28;20041;-85
2023/12/02 10:06:36;;;;;;;17.05;10.10;;;-0.90;99.90;;;;;;5027017;28;20072;-84
2023/12/02 10:09:29;;;;;;;13.95;9.45;;;-0.90;99.90;;;;;;5012356;28;20098;-85
2023/12/02 10:12:24;;;;;;;13.07;9.30;;;-0.80;99.90;;;;;;5009262;28;20021;-87
2023/12/02 10:14:59;;;;;;;12.98;8.45;;;-0.80;99.90;;;;;;5011614;28;20032;-86
2023/12/02 10:17:26;;;;;;;11.95;8.43;;;-0.80;99.90;;;;;;5006903;28;20034;-85
2023/12/02 10:19:57;;;;;;;14.05;8.30;;;-0.80;99.90;;;;;;5015197;28;20093;-86
2023/12/02 10:22:25;;;;;;;10.70;8.18;;;-0.80;99.90;;;;;;5009240;28;20033;-85
2023/12/02 10:25:04;;;;;;;12.05;7.30;;;-0.80;99.90;;;;;;5012815;28;20429;-85
2023/12/02 10:27:32;;;;;;;10.10;6.65;;;-0.80;99.90;;;;;;5015438;28;20022;-85
2023/12/02 10:30:15;;;;;;;12.68;7.10;;;-0.80;99.90;;;;;;5026654;28;20048;-86
2023/12/02 10:33:03;;;;;;;10.07;6.68;;;-0.80;99.90;;;;;;5013389;28;20158;-85
2023/12/02 10:35:43;;;;;;;9.63;6.25;;;-0.70;99.90;;;;;;5017480;28;20297;-85
2023/12/02 10:38:45;;;;;;;9.05;6.28;;;-0.80;99.90;;;;;;5018661;28;20029;-85
2023/12/02 10:41:20;;;;;;;9.60;5.95;;;-0.80;99.90;;;;;;5013135;28;20072;-85
2023/12/02 10:43:48;;;;;;;8.02;5.35;;;-0.80;99.90;;;;;;5011760;28;20037;-85
2023/12/02 10:46:16;;;;;;;9.98;6.68;;;-0.80;99.90;;;;;;5015929;28;20025;-86
2023/12/02 10:48:42;;;;;;;8.45;6.00;;;-0.90;99.90;;;;;;5018127;28;20014;-87
2023/12/02 10:51:09;;;;;;;9.32;5.95;;;-1.00;99.90;;;;;;5015563;28;20056;-87
2023/12/02 10:53:37;;;;;;;10.00;6.68;;;-0.90;99.90;;;;;;5014482;28;20083;-85
2023/12/02 10:56:11;;;;;;;9.38;5.75;;;-0.90;99.90;;;;;;5013581;28;20065;-85
2023/12/02 10:58:39;;;;;;;7.88;6.13;;;-0.90;99.90;;;;;;5015890;28;20030;-85
2023/12/02 11:01:09;;;;;;;9.90;6.45;;;-0.90;99.90;;;;;;5009975;28;20041;-88
2023/12/02 11:03:54;;;;;;;8.65;6.88;;;-0.80;99.90;;;;;;5013291;28;20540;-85
2023/12/02 11:06:39;;;;;;;9.95;6.60;;;-0.80;99.90;;;;;;5016344;28;20029;-85
2023/12/02 11:09:35;;;;;;;9.10;6.05;;;-0.70;99.90;;;;;;5014225;28;20056;-86
2023/12/02 11:12:17;;;;;;;9.07;6.13;;;-0.70;99.90;;;;;;5005887;28;20962;-85
2023/12/02 11:14:47;;;;;;;11.98;6.55;;;-0.60;99.90;;;;;;5015853;28;20056;-86
2023/12/02 11:17:27;;;;;;;8.00;5.47;;;-0.60;99.90;;;;;;5011787;28;20075;-85
2023/12/02 11:20:05;;;;;;;10.82;6.00;;;-0.60;99.90;;;;;;5008821;28;20486;-87
2023/12/02 11:23:03;;;;;;;6.95;5.18;;;-0.60;99.90;;;;;;5008798;28;20045;-85
2023/12/02 11:25:54;;;;;;;7.22;5.35;;;-0.60;99.90;;;;;;5011673;28;20044;-85
2023/12/02 11:28:40;;;;;;;7.70;5.40;;;-0.60;99.90;;;;;;5016789;28;20021;-86
2023/12/02 11:31:16;;;;;;;7.03;5.13;;;-0.60;99.90;;;;;;5022244;28;20335;-84
2023/12/02 11:34:03;;;;;;;9.27;5.20;;;-0.60;99.90;;;;;;5020768;28;20030;-85
2023/12/02 11:37:03;;;;;;;7.63;4.50;;;-0.60;99.90;;;;;;5010599;28;20034;-85
2023/12/02 11:40:03;;;;;;;6.35;4.93;;;-0.60;99.90;;;;;;5017041;28;20040;-86
2023/12/02 11:42:39;;;;;;;7.05;4.60;;;-0.50;99.90;;;;;;5030718;28;20079;-85
2023/12/02 11:45:21;;;;;;;7.75;5.15;;;-0.60;99.90;;;;;;5014071;28;20104;-85
2023/12/02 11:47:55;;;;;;;7.40;4.65;;;-0.50;99.90;;;;;;5030427;28;20461;-86
2023/12/02 11:50:52;;;;;;;7.93;5.05;;;-0.40;99.90;;;;;;5009543;28;20039;-84
2023/12/02 11:53:44;;;;;;;8.00;5.10;;;-0.40;99.90;;;;;;5010973;28;20460;-88
2023/12/02 11:56:11;;;;;;;6.85;5.18;;;-0.40;99.90;;;;;;5012245;28;20359;-85
2023/12/02 11:58:51;;;;;;;8.48;5.32;;;-0.40;99.90;;;;;;5013577;28;20033;-85
2023/12/02 12:01:47;;;;;;;8.15;5.75;;;-0.40;99.90;;;;;;5011903;28;20017;-85
2023/12/02 12:04:31;;;;;;;6.80;4.90;;;-0.30;99.90;;;;;;4983650;28;20524;-85
2023/12/02 12:07:14;;;;;;;9.15;5.47;;;-0.30;99.90;;;;;;5017212;28;20448;-85
2023/12/02 12:10:04;;;;;;;9.38;5.22;;;-0.20;99.90;;;;;;5011285;28;20060;-85
2023/12/02 12:12:33;;;;;;;5.72;4.47;;;-0.10;99.90;;;;;;5009722;28;20084;-85
2023/12/02 12:15:01;;;;;;;9.23;4.57;;;0.00;99.90;;;;;;5011411;28;20029;-85
2023/12/02 12:17:27;;;;;;;6.95;5.00;;;0.00;99.90;;;;;;5009193;28;20509;-85
2023/12/02 12:19:54;;;;;;;5.93;4.55;;;-0.10;99.90;;;;;;5012395;28;20060;-85
2023/12/02 12:22:20;;;;;;;6.88;4.38;;;-0.20;99.90;;;;;;5009244;28;20018;-85
2023/12/02 12:24:45;;;;;;;8.32;4.35;;;-0.30;99.90;;;;;;5008951;28;20121;-85
2023/12/02 12:27:11;;;;;;;7.50;4.40;;;-0.30;99.90;;;;;;5010531;28;20112;-85
2023/12/02 12:29:53;;;;;;;6.32;4.80;;;-0.20;99.90;;;;;;5010798;28;20021;-85
2023/12/02 12:32:19;;;;;;;5.85;3.85;;;-0.20;99.90;;;;;;5023878;28;20093;-86
2023/12/02 12:34:48;;;;;;;7.60;4.13;;;-0.10;99.90;;;;;;5013032;28;20504;-85
2023/12/02 12:37:16;;;;;;;6.18;4.32;;;-0.10;99.90;;;;;;5011846;28;20017;-86
2023/12/02 12:39:44;;;;;;;6.07;3.78;;;-0.10;99.90;;;;;;5007410;28;20024;-86
2023/12/02 12:42:10;;;;;;;7.15;4.20;;;-0.10;99.90;;;;;;5008770;28;20060;-85
2023/12/02 12:44:37;;;;;;;5.93;3.92;;;-0.20;99.90;;;;;;5013613;28;20053;-85
2023/12/02 12:47:03;;;;;;;4.88;3.40;;;-0.20;99.90;;;;;;5009002;28;20572;-85